createdAt,value
2022-11-09T00:00:48.909Z,17.58
2022-11-09T00:03:15.739Z,16.50
2022-11-09T00:05:42.553Z,17.13
2022-11-09T00:08:11.104Z,17.00
2022-11-09T00:10:38.762Z,16.35
2022-11-09T00:13:05.729Z,14.90
2022-11-09T00:15:32.777Z,15.50
2022-11-09T00:18:03.089Z,14.45
2022-11-09T00:20:29.802Z,13.23
2022-11-09T00:22:57.019Z,13.00
2022-11-09T00:25:23.661Z,12.55
2022-11-09T00:27:50.502Z,13.02
2022-11-09T00:30:17.174Z,12.40
2022-11-09T00:32:44.615Z,11.43
2022-11-09T00:35:11.452Z,10.63
2022-11-09T00:37:38.156Z,12.05
2022-11-09T00:40:05.529Z,11.07
2022-11-09T00:42:32.292Z,12.15
2022-11-09T00:44:58.958Z,13.50
2022-11-09T00:47:25.678Z,12.40
2022-11-09T00:49:52.438Z,12.27
2022-11-09T00:52:19.125Z,10.38
2022-11-09T00:54:45.877Z,11.02
2022-11-09T00:57:13.888Z,10.98
2022-11-09T00:59:40.688Z,10.43
2022-11-09T01:02:07.382Z,12.00
2022-11-09T01:04:34.266Z,10.15
2022-11-09T01:07:00.948Z,8.98
2022-11-09T01:09:27.769Z,8.98
2022-11-09T01:11:54.447Z,7.90
2022-11-09T01:14:21.143Z,8.48
2022-11-09T01:16:47.782Z,8.50
2022-11-09T01:19:14.474Z,9.63
2022-11-09T01:21:41.210Z,10.60
2022-11-09T01:24:08.943Z,9.02
2022-11-09T01:26:36.393Z,9.10
2022-11-09T01:29:03.142Z,7.93
2022-11-09T01:31:30.031Z,7.60
2022-11-09T01:33:56.808Z,7.65
2022-11-09T01:36:24.611Z,8.65
2022-11-09T01:38:51.810Z,8.10
2022-11-09T01:41:25.173Z,7.18
2022-11-09T01:44:10.744Z,7.25
2022-11-09T01:46:54.309Z,7.32
2022-11-09T01:49:45.459Z,7.55
2022-11-09T01:52:30.081Z,7.15
2022-11-09T01:55:15.037Z,7.03
2022-11-09T01:58:00.353Z,6.72
2022-11-09T02:00:27.404Z,6.75
2022-11-09T02:03:01.511Z,6.75
2022-11-09T02:05:32.957Z,6.55
2022-11-09T02:08:01.870Z,6.63
2022-11-09T02:10:41.101Z,7.22
2022-11-09T02:13:09.778Z,6.60
2022-11-09T02:15:40.158Z,6.93
2022-11-09T02:18:09.762Z,6.75
2022-11-09T02:21:06.046Z,7.00
2022-11-09T02:23:32.749Z,6.70
2022-11-09T02:26:05.541Z,7.40
2022-11-09T02:28:32.492Z,7.13
2022-11-09T02:30:59.436Z,6.93
2022-11-09T02:33:26.171Z,6.65
2022-11-09T02:35:52.877Z,6.53
2022-11-09T02:38:19.939Z,6.53
2022-11-09T02:40:51.656Z,6.15
2022-11-09T02:43:19.716Z,7.43
2022-11-09T02:45:46.737Z,6.15
2022-11-09T02:48:13.420Z,6.55
2022-11-09T02:50:40.226Z,6.95
2022-11-09T02:53:06.991Z,6.53
2022-11-09T02:55:33.721Z,7.05
2022-11-09T02:58:00.484Z,6.35
2022-11-09T03:00:27.180Z,6.03
2022-11-09T03:02:54.144Z,5.95
2022-11-09T03:05:20.993Z,6.10
2022-11-09T03:07:47.683Z,6.57
2022-11-09T03:10:14.510Z,7.13
2022-11-09T03:12:41.224Z,6.97
2022-11-09T03:15:09.196Z,6.65
2022-11-09T03:17:36.309Z,7.47
2022-11-09T03:20:03.773Z,7.40
2022-11-09T03:22:31.187Z,6.85
2022-11-09T03:24:57.958Z,6.50
2022-11-09T03:27:24.722Z,7.32
2022-11-09T03:29:51.412Z,7.40
2022-11-09T03:32:18.274Z,7.05
2022-11-09T03:34:45.074Z,7.57
2022-11-09T03:37:11.896Z,7.15
2022-11-09T03:39:38.679Z,7.43
2022-11-09T03:42:05.432Z,6.20
2022-11-09T03:44:32.229Z,7.88
2022-11-09T03:46:58.995Z,6.78
2022-11-09T03:49:25.757Z,6.43
2022-11-09T03:51:52.549Z,6.65
2022-11-09T03:54:19.275Z,6.00
2022-11-09T03:56:45.962Z,5.72
2022-11-09T03:59:12.843Z,6.30
2022-11-09T04:01:39.636Z,5.82
2022-11-09T04:04:06.627Z,8.60
2022-11-09T04:06:33.471Z,7.22
2022-11-09T04:09:00.215Z,6.65
2022-11-09T04:11:27.003Z,7.13
2022-11-09T04:13:53.714Z,6.60
2022-11-09T04:16:20.420Z,6.10
2022-11-09T04:18:47.143Z,6.45
2022-11-09T04:21:14.312Z,6.32
2022-11-09T04:23:41.028Z,5.93
2022-11-09T04:26:07.726Z,6.10
2022-11-09T04:28:34.458Z,6.00
2022-11-09T04:31:02.370Z,6.55
2022-11-09T04:33:29.350Z,5.47
2022-11-09T04:36:00.880Z,5.78
2022-11-09T04:38:27.566Z,5.38
2022-11-09T04:40:54.328Z,5.35
2022-11-09T04:43:21.257Z,5.70
2022-11-09T04:45:48.240Z,5.13
2022-11-09T04:48:14.952Z,5.32
2022-11-09T04:50:41.634Z,5.65
2022-11-09T04:53:10.947Z,5.28
2022-11-09T04:55:38.366Z,5.10
2022-11-09T04:58:05.695Z,6.20
2022-11-09T05:00:33.109Z,7.25
2022-11-09T05:03:01.396Z,5.90
2022-11-09T05:05:29.273Z,4.20
2022-11-09T05:07:56.493Z,3.58
2022-11-09T05:10:23.433Z,7.22
2022-11-09T05:12:50.183Z,8.00
2022-11-09T05:15:16.975Z,6.60
2022-11-09T05:17:43.720Z,7.65
2022-11-09T05:20:11.131Z,6.50
2022-11-09T05:22:58.909Z,5.47
2022-11-09T05:25:25.689Z,6.80
2022-11-09T05:27:53.213Z,6.65
2022-11-09T05:30:20.196Z,7.35
2022-11-09T05:32:47.123Z,9.20
2022-11-09T05:35:14.166Z,9.55
2022-11-09T05:37:41.276Z,10.63
2022-11-09T05:40:09.425Z,8.77
2022-11-09T05:42:40.248Z,8.77
2022-11-09T05:45:40.305Z,10.77
2022-11-09T05:47:56.097Z,10.68
2022-11-09T05:50:22.815Z,12.00
2022-11-09T05:52:49.613Z,10.68
2022-11-09T05:55:16.399Z,8.77
2022-11-09T05:57:43.123Z,9.20
2022-11-09T06:00:11.262Z,9.27
2022-11-09T06:02:38.098Z,8.10
2022-11-09T06:05:05.015Z,5.90
2022-11-09T06:07:33.076Z,5.55
2022-11-09T06:09:59.793Z,4.80
2022-11-09T06:12:26.702Z,5.10
2022-11-09T06:14:53.495Z,4.93
2022-11-09T06:17:20.387Z,4.68
2022-11-09T06:19:47.098Z,4.20
2022-11-09T06:22:13.808Z,4.10
2022-11-09T06:24:40.692Z,3.75
2022-11-09T06:27:07.512Z,4.28
2022-11-09T06:29:34.220Z,4.55
2022-11-09T06:32:00.993Z,5.00
2022-11-09T06:34:27.758Z,7.97
2022-11-09T06:36:54.612Z,8.98
2022-11-09T06:39:21.565Z,8.10
2022-11-09T06:41:48.297Z,7.45
2022-11-09T06:44:15.378Z,8.20
2022-11-09T06:46:42.202Z,6.05
2022-11-09T06:49:09.317Z,9.05
2022-11-09T06:51:36.033Z,8.80
2022-11-09T06:54:02.736Z,8.00
2022-11-09T06:56:29.747Z,9.60
2022-11-09T06:58:56.487Z,10.05
2022-11-09T07:01:28.386Z,10.23
2022-11-09T07:03:55.188Z,8.50
2022-11-09T07:06:22.442Z,7.43
2022-11-09T07:08:49.386Z,6.35
2022-11-09T07:11:17.040Z,6.20
2022-11-09T07:13:43.802Z,4.38
2022-11-09T07:16:12.915Z,4.28
2022-11-09T07:18:39.798Z,4.55
2022-11-09T07:21:11.433Z,4.82
2022-11-09T07:23:41.247Z,6.13
2022-11-09T07:26:08.159Z,6.57
2022-11-09T07:28:35.844Z,5.65
2022-11-09T07:31:02.734Z,4.90
2022-11-09T07:33:32.794Z,5.45
2022-11-09T07:36:01.294Z,5.25
2022-11-09T07:38:31.547Z,5.25
2022-11-09T07:41:02.228Z,5.50
2022-11-09T07:43:29.665Z,5.13
2022-11-09T07:45:56.690Z,4.28
2022-11-09T07:48:23.933Z,4.80
2022-11-09T07:50:50.762Z,4.93
2022-11-09T07:53:18.042Z,4.20
2022-11-09T07:55:44.977Z,5.63
2022-11-09T07:58:14.078Z,4.50
2022-11-09T08:00:42.602Z,5.00
2022-11-09T08:03:09.670Z,4.25
2022-11-09T08:05:37.402Z,4.32
2022-11-09T08:08:10.380Z,4.95
2022-11-09T08:10:38.251Z,4.63
2022-11-09T08:13:14.769Z,4.93
2022-11-09T08:15:42.173Z,4.68
2022-11-09T08:18:13.489Z,5.45
2022-11-09T08:20:40.424Z,5.57
2022-11-09T08:23:07.261Z,5.50
2022-11-09T08:25:35.555Z,5.32
2022-11-09T08:28:03.672Z,5.72
2022-11-09T08:30:31.354Z,5.20
2022-11-09T08:32:59.948Z,5.40
2022-11-09T08:35:27.284Z,5.50
2022-11-09T08:37:54.597Z,5.07
2022-11-09T08:40:24.058Z,5.47
2022-11-09T08:42:51.676Z,5.25
2022-11-09T08:45:18.723Z,5.90
2022-11-09T08:47:46.005Z,5.90
2022-11-09T08:50:14.598Z,5.75
2022-11-09T08:52:41.532Z,5.28
2022-11-09T08:55:08.669Z,5.47
2022-11-09T08:57:35.463Z,5.60
2022-11-09T09:00:02.299Z,5.10
2022-11-09T09:02:29.083Z,5.20
2022-11-09T09:04:55.790Z,4.53
2022-11-09T09:07:22.726Z,5.50
2022-11-09T09:09:49.486Z,5.68
2022-11-09T09:12:16.315Z,5.65
2022-11-09T09:14:43.068Z,6.40
2022-11-09T09:17:10.086Z,6.05
2022-11-09T09:19:36.846Z,5.20
2022-11-09T09:22:03.697Z,5.38
2022-11-09T09:24:30.400Z,5.75
2022-11-09T09:26:57.131Z,5.38
2022-11-09T09:29:23.928Z,6.07
2022-11-09T09:31:51.317Z,5.38
2022-11-09T09:34:18.439Z,6.20
2022-11-09T09:36:48.217Z,5.00
2022-11-09T09:39:15.823Z,5.60
2022-11-09T09:42:04.935Z,6.38
2022-11-09T09:44:53.852Z,6.38
2022-11-09T09:47:43.229Z,6.32
2022-11-09T09:50:18.850Z,8.10
2022-11-09T09:53:23.639Z,6.70
2022-11-09T09:58:49.413Z,5.80
2022-11-09T10:01:20.183Z,5.75
2022-11-09T10:03:48.480Z,6.10
2022-11-09T10:06:40.605Z,5.63
2022-11-09T10:09:33.589Z,6.72
2022-11-09T10:12:15.360Z,6.13
2022-11-09T10:15:13.857Z,6.75
2022-11-09T10:17:49.423Z,5.63
2022-11-09T10:20:31.543Z,5.10
2022-11-09T10:23:19.425Z,4.30
2022-11-09T10:26:03.781Z,6.13
2022-11-09T10:29:01.164Z,6.70
2022-11-09T10:31:23.631Z,7.07
2022-11-09T10:33:56.069Z,7.20
2022-11-09T10:36:30.750Z,7.30
2022-11-09T10:39:01.388Z,5.93
2022-11-09T10:41:40.138Z,5.55
2022-11-09T10:44:17.303Z,5.40
2022-11-09T10:47:05.313Z,5.13
2022-11-09T10:49:33.918Z,4.63
2022-11-09T10:52:01.559Z,5.10
2022-11-09T10:54:38.219Z,5.30
2022-11-09T10:57:14.129Z,5.10
2022-11-09T10:59:54.679Z,5.50
2022-11-09T11:02:27.918Z,5.15
2022-11-09T11:05:06.984Z,5.05
2022-11-09T11:07:35.460Z,4.80
2022-11-09T11:10:15.420Z,4.85
2022-11-09T11:12:57.598Z,4.90
2022-11-09T11:15:38.618Z,4.80
2022-11-09T11:18:14.821Z,4.65
2022-11-09T11:20:41.564Z,4.15
2022-11-09T11:23:17.332Z,4.22
2022-11-09T11:26:07.340Z,4.28
2022-11-09T11:28:42.625Z,4.72
2022-11-09T11:31:15.717Z,4.30
2022-11-09T11:33:42.845Z,4.03
2022-11-09T11:36:26.997Z,4.85
2022-11-09T11:39:29.693Z,4.80
2022-11-09T11:42:20.773Z,8.88
2022-11-09T11:48:57.476Z,8.63
2022-11-09T11:51:36.649Z,5.82
2022-11-09T11:54:16.569Z,4.60
2022-11-09T11:56:52.771Z,18.90
2022-11-09T11:59:50.445Z,23.33
2022-11-09T12:02:30.740Z,20.77
2022-11-09T12:05:15.689Z,10.02
2022-11-09T12:10:24.138Z,4.40
2022-11-09T12:13:14.181Z,5.00
2022-11-09T12:15:47.093Z,4.18
2022-11-09T12:18:37.903Z,3.90
2022-11-09T12:21:17.948Z,4.13
2022-11-09T12:24:00.168Z,5.07
2022-11-09T12:27:10.722Z,5.40
2022-11-09T12:29:42.660Z,4.13
2022-11-09T12:32:46.258Z,5.68
2022-11-09T12:35:44.619Z,3.50
2022-11-09T12:38:20.822Z,3.67
2022-11-09T12:40:56.138Z,3.58
2022-11-09T12:43:31.116Z,4.03
2022-11-09T12:45:59.572Z,3.50
2022-11-09T12:48:32.155Z,3.78
2022-11-09T12:51:04.074Z,3.30
2022-11-09T12:53:35.155Z,3.70
2022-11-09T12:56:04.340Z,3.78
2022-11-09T12:58:34.285Z,3.70
2022-11-09T13:01:03.963Z,3.28
2022-11-09T13:03:33.937Z,3.20
2022-11-09T13:06:15.857Z,3.22
2022-11-09T13:08:58.747Z,3.33
2022-11-09T13:11:48.586Z,3.25
2022-11-09T13:14:29.011Z,2.95
2022-11-09T13:16:58.967Z,3.00
2022-11-09T13:19:34.969Z,3.50
2022-11-09T13:22:02.924Z,3.45
2022-11-09T13:24:34.324Z,3.53
2022-11-09T13:27:03.285Z,4.30
2022-11-09T13:29:56.271Z,4.30
2022-11-09T13:32:27.300Z,4.13
2022-11-09T13:35:02.206Z,4.10
2022-11-09T13:37:41.241Z,3.80
2022-11-09T13:40:33.040Z,4.30
2022-11-09T13:43:28.772Z,4.63
2022-11-09T13:46:05.136Z,4.30
2022-11-09T13:48:49.115Z,5.22
2022-11-09T13:51:25.939Z,4.90
2022-11-09T13:53:59.432Z,5.07
2022-11-09T13:56:40.735Z,4.65
2022-11-09T13:59:25.996Z,5.30
2022-11-09T14:01:55.144Z,4.95
2022-11-09T14:04:24.456Z,4.90
2022-11-09T14:07:03.716Z,4.65
2022-11-09T14:09:44.590Z,4.82
2022-11-09T14:12:42.731Z,4.03
2022-11-09T14:15:16.450Z,4.32
2022-11-09T14:18:20.514Z,4.47
2022-11-09T14:20:55.880Z,4.68
2022-11-09T14:23:28.213Z,5.28
2022-11-09T14:25:55.889Z,5.80
2022-11-09T14:28:31.054Z,8.90
2022-11-09T14:30:58.094Z,6.63
2022-11-09T14:33:27.746Z,6.82
2022-11-09T14:35:57.863Z,6.75
2022-11-09T14:38:46.879Z,7.22
2022-11-09T14:41:24.514Z,6.65
2022-11-09T14:43:53.446Z,6.60
2022-11-09T14:46:28.396Z,15.93
2022-11-09T14:48:59.569Z,14.05
2022-11-09T14:51:36.429Z,10.38
2022-11-09T14:54:07.671Z,9.35
2022-11-09T14:56:37.260Z,7.05
2022-11-09T14:59:08.995Z,6.65
2022-11-09T15:01:35.878Z,6.40
2022-11-09T15:04:21.372Z,6.70
2022-11-09T15:07:00.429Z,6.32
2022-11-09T15:09:43.211Z,6.60
2022-11-09T15:12:21.083Z,5.68
2022-11-09T15:14:57.105Z,4.50
2022-11-09T15:17:26.622Z,4.00
2022-11-09T15:19:59.746Z,4.88
2022-11-09T15:22:52.561Z,4.55
2022-11-09T15:25:35.453Z,4.82
2022-11-09T15:28:14.512Z,4.43
2022-11-09T15:30:46.236Z,4.00
2022-11-09T15:33:19.576Z,3.92
2022-11-09T15:35:53.397Z,3.08
2022-11-09T15:38:41.264Z,3.55
2022-11-09T15:41:16.296Z,3.65
2022-11-09T15:43:43.656Z,3.60
2022-11-09T15:46:15.821Z,5.10
2022-11-09T15:48:46.242Z,5.15
2022-11-09T15:51:14.551Z,5.82
2022-11-09T15:53:41.341Z,8.57
2022-11-09T15:56:15.616Z,7.32
2022-11-09T15:58:42.503Z,5.65
2022-11-09T16:01:10.438Z,5.50
2022-11-09T16:03:37.152Z,5.00
2022-11-09T16:06:04.019Z,10.98
2022-11-09T16:08:30.772Z,6.15
2022-11-09T16:10:58.529Z,5.63
2022-11-09T16:13:25.371Z,4.47
2022-11-09T16:15:52.335Z,5.25
2022-11-09T16:18:25.553Z,6.10
2022-11-09T16:20:52.790Z,5.93
2022-11-09T16:23:19.530Z,4.93
2022-11-09T16:25:46.268Z,4.35
2022-11-09T16:28:13.376Z,4.03
2022-11-09T16:30:45.488Z,5.43
2022-11-09T16:33:13.379Z,6.82
2022-11-09T16:35:40.169Z,5.15
2022-11-09T16:38:06.889Z,5.88
2022-11-09T16:40:33.701Z,4.43
2022-11-09T16:43:00.604Z,11.00
2022-11-09T16:45:32.096Z,7.18
2022-11-09T16:48:04.410Z,3.80
2022-11-09T16:50:31.157Z,4.80
2022-11-09T16:52:57.864Z,5.07
2022-11-09T16:55:24.782Z,4.68
2022-11-09T16:57:51.481Z,5.78
2022-11-09T17:00:23.034Z,7.30
2022-11-09T17:02:50.034Z,5.55
2022-11-09T17:05:16.854Z,5.28
2022-11-09T17:07:43.824Z,5.97
2022-11-09T17:10:11.746Z,10.25
2022-11-09T17:12:38.704Z,8.63
2022-11-09T17:15:06.014Z,5.57
2022-11-09T17:17:32.805Z,4.70
2022-11-09T17:20:01.568Z,6.50
2022-11-09T17:22:28.332Z,11.82
2022-11-09T17:24:55.166Z,14.07
2022-11-09T17:27:21.933Z,12.70
2022-11-09T17:29:49.051Z,16.65
2022-11-09T17:32:16.133Z,7.43
2022-11-09T17:34:42.938Z,9.15
2022-11-09T17:37:09.852Z,5.85
2022-11-09T17:39:36.548Z,5.57
2022-11-09T17:42:03.553Z,6.10
2022-11-09T17:44:30.315Z,4.60
2022-11-09T17:46:57.045Z,5.22
2022-11-09T17:49:23.924Z,5.97
2022-11-09T17:51:50.624Z,4.78
2022-11-09T17:54:17.346Z,5.78
2022-11-09T17:56:44.114Z,6.25
2022-11-09T17:59:12.345Z,5.80
2022-11-09T18:01:41.515Z,6.70
2022-11-09T18:04:10.487Z,7.55
2022-11-09T18:06:37.521Z,7.50
2022-11-09T18:09:39.004Z,5.28
2022-11-09T18:11:51.708Z,7.10
2022-11-09T18:14:18.531Z,5.80
2022-11-09T18:16:45.387Z,6.70
2022-11-09T18:19:12.259Z,6.40
2022-11-09T18:21:39.284Z,6.45
2022-11-09T18:24:06.396Z,7.25
2022-11-09T18:26:33.325Z,7.05
2022-11-09T18:29:00.384Z,10.77
2022-11-09T18:31:27.376Z,8.95
2022-11-09T18:33:54.340Z,8.27
2022-11-09T18:36:21.770Z,10.15
2022-11-09T18:38:51.212Z,8.52
2022-11-09T18:41:21.969Z,8.98
2022-11-09T18:43:50.273Z,12.00
2022-11-09T18:46:19.945Z,17.92
2022-11-09T18:48:51.142Z,10.30
2022-11-09T18:51:18.392Z,9.75
2022-11-09T18:53:46.805Z,13.60
2022-11-09T18:56:23.150Z,24.23
2022-11-09T18:58:53.008Z,16.73
2022-11-09T19:01:20.412Z,10.93
2022-11-09T19:03:47.191Z,17.63
2022-11-09T19:06:16.523Z,8.73
2022-11-09T19:09:02.313Z,7.93
2022-11-09T19:11:32.254Z,8.02
2022-11-09T19:13:59.132Z,7.57
2022-11-09T19:16:27.046Z,7.40
2022-11-09T19:18:54.040Z,7.80
2022-11-09T19:21:40.607Z,8.60
2022-11-09T19:24:11.074Z,8.25
2022-11-09T19:26:37.865Z,7.97
2022-11-09T19:29:06.945Z,7.78
2022-11-09T19:31:34.686Z,7.78
2022-11-09T19:34:01.383Z,7.43
2022-11-09T19:36:31.224Z,7.95
2022-11-09T19:38:58.994Z,8.65
2022-11-09T19:41:26.240Z,8.40
2022-11-09T19:43:54.878Z,10.18
2022-11-09T19:46:22.131Z,12.23
2022-11-09T19:48:49.180Z,11.63
2022-11-09T19:51:18.094Z,12.32
2022-11-09T19:53:52.811Z,9.55
2022-11-09T19:56:21.211Z,8.10
2022-11-09T19:58:49.748Z,8.70
2022-11-09T20:01:16.855Z,7.30
2022-11-09T20:03:43.777Z,7.80
2022-11-09T20:06:10.641Z,7.55
2022-11-09T20:08:37.843Z,7.55
2022-11-09T20:11:09.140Z,7.45
2022-11-09T20:13:38.902Z,6.97
2022-11-09T20:16:08.319Z,8.35
2022-11-09T20:18:36.712Z,8.38
2022-11-09T20:21:04.394Z,8.50
2022-11-09T20:23:31.325Z,8.40
2022-11-09T20:26:09.388Z,8.40
2022-11-09T20:28:36.137Z,8.27
2022-11-09T20:31:14.177Z,8.38
2022-11-09T20:33:41.127Z,8.45
2022-11-09T20:36:08.422Z,7.55
2022-11-09T20:38:35.364Z,8.07
2022-11-09T20:41:04.243Z,7.63
2022-11-09T20:43:31.302Z,8.23
2022-11-09T20:46:08.148Z,9.10
2022-11-09T20:51:22.497Z,9.85
2022-11-09T20:53:50.395Z,10.63
2022-11-09T20:56:18.346Z,9.18
2022-11-09T20:58:45.268Z,9.20
2022-11-09T21:01:15.702Z,9.55
2022-11-09T21:03:43.019Z,8.95
2022-11-09T21:06:11.369Z,8.75
2022-11-09T21:08:38.316Z,8.90
2022-11-09T21:11:07.404Z,9.10
2022-11-09T21:13:34.207Z,9.95
2022-11-09T21:16:06.171Z,9.75
2022-11-09T21:18:33.243Z,9.40
2022-11-09T21:21:08.309Z,9.10
2022-11-09T21:23:55.575Z,9.05
2022-11-09T21:26:41.749Z,9.50
2022-11-09T21:29:32.769Z,10.00
2022-11-09T21:31:59.874Z,10.05
2022-11-09T21:34:30.360Z,10.45
2022-11-09T21:36:59.549Z,9.80
2022-11-09T21:39:26.290Z,10.50
2022-11-09T21:41:53.021Z,10.25
2022-11-09T21:44:19.746Z,11.05
2022-11-09T21:46:46.680Z,11.55
2022-11-09T21:49:13.795Z,11.52
2022-11-09T21:51:41.413Z,11.77
2022-11-09T21:54:09.768Z,11.10
2022-11-09T21:56:37.106Z,11.50
2022-11-09T21:59:04.698Z,11.45
2022-11-09T22:01:31.548Z,11.73
2022-11-09T22:03:58.743Z,11.93
2022-11-09T22:06:25.925Z,13.90
2022-11-09T22:08:53.199Z,13.90
2022-11-09T22:11:46.247Z,13.73
2022-11-09T22:14:33.661Z,13.75
2022-11-09T22:17:00.729Z,13.27
2022-11-09T22:19:47.116Z,13.40
2022-11-09T22:22:14.898Z,13.10
2022-11-09T22:24:42.056Z,12.68
2022-11-09T22:27:08.932Z,12.32
2022-11-09T22:29:35.740Z,12.32
2022-11-09T22:32:02.780Z,13.70
2022-11-09T22:34:29.509Z,13.07
2022-11-09T22:36:56.326Z,12.27
2022-11-09T22:39:23.096Z,13.02
2022-11-09T22:41:50.101Z,12.13
2022-11-09T22:44:16.856Z,12.75
2022-11-09T22:46:43.754Z,13.05
2022-11-09T22:49:10.524Z,13.23
2022-11-09T22:51:37.441Z,13.73
2022-11-09T22:54:04.315Z,13.98
2022-11-09T22:56:31.016Z,13.65
2022-11-09T22:58:57.826Z,13.45
2022-11-09T23:01:24.692Z,13.60
2022-11-09T23:03:52.356Z,14.27
2022-11-09T23:06:21.515Z,14.85
2022-11-09T23:08:48.700Z,15.25
2022-11-09T23:11:20.669Z,14.68
2022-11-09T23:13:52.695Z,15.25
2022-11-09T23:16:19.964Z,15.80
2022-11-09T23:18:56.039Z,15.43
2022-11-09T23:21:31.955Z,16.08
2022-11-09T23:24:01.597Z,16.42
2022-11-09T23:26:29.413Z,15.93
2022-11-09T23:28:56.341Z,16.05
2022-11-09T23:31:27.024Z,16.10
2022-11-09T23:33:55.753Z,15.85
2022-11-09T23:36:24.688Z,15.35
2022-11-09T23:38:51.630Z,15.27
2022-11-09T23:41:18.732Z,14.30
2022-11-09T23:43:49.257Z,15.85
2022-11-09T23:46:17.174Z,15.40
2022-11-09T23:48:43.987Z,15.25
2022-11-09T23:51:11.376Z,15.57
2022-11-09T23:53:38.865Z,15.20
2022-11-09T23:56:08.753Z,15.20
2022-11-09T23:58:36.013Z,15.30
